createdAt,value
2023-06-01T00:00:26.458Z,37.78
2023-06-01T00:01:26.442Z,37.78
2023-06-01T00:02:26.494Z,37.76
2023-06-01T00:03:26.684Z,37.77
2023-06-01T00:04:26.443Z,37.75
2023-06-01T00:05:26.422Z,37.70
2023-06-01T00:06:26.410Z,37.71
2023-06-01T00:07:26.408Z,37.68
2023-06-01T00:08:26.395Z,37.69
2023-06-01T00:09:26.392Z,37.65
2023-06-01T00:10:26.383Z,37.68
2023-06-01T00:11:26.411Z,37.59
2023-06-01T00:12:26.441Z,37.57
2023-06-01T00:13:26.489Z,37.57
2023-06-01T00:14:26.536Z,37.49
2023-06-01T00:15:26.593Z,37.51
2023-06-01T00:16:26.669Z,37.49
2023-06-01T00:17:26.716Z,37.45
2023-06-01T00:18:26.780Z,37.43
2023-06-01T00:19:26.815Z,37.41
2023-06-01T00:20:26.870Z,37.41
2023-06-01T00:21:26.986Z,37.34
2023-06-01T00:22:26.971Z,37.36
2023-06-01T00:23:27.051Z,37.37
2023-06-01T00:24:27.117Z,37.34
2023-06-01T00:25:27.129Z,37.31
2023-06-01T00:26:27.190Z,37.26
2023-06-01T00:27:27.235Z,37.29
2023-06-01T00:28:27.303Z,37.27
2023-06-01T00:29:27.337Z,37.25
2023-06-01T00:30:27.377Z,37.23
2023-06-01T00:31:27.498Z,37.20
2023-06-01T00:32:27.505Z,37.22
2023-06-01T00:33:27.554Z,37.18
2023-06-01T00:34:27.605Z,37.19
2023-06-01T00:35:27.646Z,37.15
2023-06-01T00:36:27.700Z,37.16
2023-06-01T00:37:27.751Z,37.15
2023-06-01T00:38:27.815Z,37.19
2023-06-01T00:39:27.857Z,37.12
2023-06-01T00:40:27.907Z,37.13
2023-06-01T00:41:27.954Z,37.09
2023-06-01T00:42:28.004Z,37.12
2023-06-01T00:43:28.071Z,37.12
2023-06-01T00:44:28.118Z,37.14
2023-06-01T00:45:28.174Z,37.11
2023-06-01T00:46:28.261Z,37.12
2023-06-01T00:47:28.323Z,37.13
2023-06-01T00:48:28.328Z,37.10
2023-06-01T00:49:28.376Z,37.11
2023-06-01T00:50:28.423Z,37.09
2023-06-01T00:51:28.483Z,37.08
2023-06-01T00:52:28.553Z,37.11
2023-06-01T00:53:28.604Z,37.13
2023-06-01T00:54:28.662Z,37.10
2023-06-01T00:55:28.720Z,37.10
2023-06-01T00:56:28.800Z,37.11
2023-06-01T00:57:28.836Z,37.13
2023-06-01T00:58:28.883Z,37.11
2023-06-01T00:59:28.933Z,37.07
2023-06-01T01:00:28.990Z,37.09
2023-06-01T01:01:29.064Z,37.08
2023-06-01T01:02:29.120Z,37.06
2023-06-01T01:03:29.154Z,37.08
2023-06-01T01:04:29.254Z,37.09
2023-06-01T01:05:29.298Z,37.08
2023-06-01T01:06:29.299Z,37.07
2023-06-01T01:07:29.353Z,37.07
2023-06-01T01:08:29.407Z,37.07
2023-06-01T01:09:29.463Z,37.09
2023-06-01T01:10:29.525Z,37.09
2023-06-01T01:11:29.570Z,37.07
2023-06-01T01:12:29.612Z,37.08
2023-06-01T01:13:29.665Z,37.07
2023-06-01T01:14:29.711Z,37.11
2023-06-01T01:15:29.771Z,37.04
2023-06-01T01:16:29.909Z,37.07
2023-06-01T01:17:29.900Z,37.04
2023-06-01T01:18:29.944Z,37.08
2023-06-01T01:19:29.983Z,37.09
2023-06-01T01:20:30.065Z,37.05
2023-06-01T01:21:30.142Z,37.07
2023-06-01T01:22:30.168Z,37.08
2023-06-01T01:23:30.202Z,37.05
2023-06-01T01:24:30.243Z,37.06
2023-06-01T01:25:30.387Z,37.09
2023-06-01T01:26:30.348Z,37.04
2023-06-01T01:27:30.399Z,37.07
2023-06-01T01:28:30.461Z,37.02
2023-06-01T01:29:30.516Z,37.07
2023-06-01T01:30:30.569Z,37.02
2023-06-01T01:31:30.687Z,37.04
2023-06-01T01:32:30.701Z,37.08
2023-06-01T01:33:30.740Z,37.08
2023-06-01T01:34:30.791Z,37.05
2023-06-01T01:35:30.839Z,37.08
2023-06-01T01:36:30.897Z,37.08
2023-06-01T01:37:30.956Z,37.05
2023-06-01T01:38:31.024Z,37.05
2023-06-01T01:39:31.084Z,37.05
2023-06-01T01:40:31.132Z,37.04
2023-06-01T01:41:31.190Z,37.03
2023-06-01T01:42:31.258Z,37.03
2023-06-01T01:43:31.314Z,37.05
2023-06-01T01:44:31.372Z,37.03
2023-06-01T01:45:31.424Z,37.04
2023-06-01T01:46:31.577Z,37.03
2023-06-01T01:47:31.717Z,37.03
2023-06-01T01:48:31.630Z,37.01
2023-06-01T01:49:31.670Z,37.03
2023-06-01T01:50:31.711Z,37.05
2023-06-01T01:51:31.789Z,37.03
2023-06-01T01:52:31.832Z,37.03
2023-06-01T01:53:31.897Z,37.06
2023-06-01T01:54:31.951Z,37.01
2023-06-01T01:55:32.011Z,37.05
2023-06-01T01:56:32.069Z,37.00
2023-06-01T01:57:32.131Z,37.03
2023-06-01T01:58:32.191Z,37.03
2023-06-01T01:59:32.242Z,37.01
2023-06-01T02:00:32.375Z,37.00
2023-06-01T02:01:33.435Z,37.00
2023-06-01T02:02:32.455Z,37.03
2023-06-01T02:03:32.469Z,37.00
2023-06-01T02:04:32.325Z,37.03
2023-06-01T02:05:32.321Z,37.00
2023-06-01T02:06:32.308Z,37.03
2023-06-01T02:07:32.307Z,37.04
2023-06-01T02:08:32.302Z,36.98
2023-06-01T02:09:32.292Z,37.01
2023-06-01T02:10:32.282Z,36.99
2023-06-01T02:11:32.276Z,37.00
2023-06-01T02:12:32.265Z,36.99
2023-06-01T02:13:32.291Z,37.00
2023-06-01T02:14:32.252Z,37.00
2023-06-01T02:15:32.248Z,37.00
2023-06-01T02:16:32.280Z,37.00
2023-06-01T02:17:32.291Z,36.99
2023-06-01T02:18:32.229Z,37.00
2023-06-01T02:19:32.217Z,37.00
2023-06-01T02:20:32.214Z,36.99
2023-06-01T02:21:32.323Z,37.00
2023-06-01T02:22:32.198Z,36.99
2023-06-01T02:23:32.732Z,36.99
2023-06-01T02:24:32.319Z,36.97
2023-06-01T02:25:32.385Z,36.96
2023-06-01T02:26:32.468Z,36.99
2023-06-01T02:27:32.511Z,36.96
2023-06-01T02:28:32.571Z,37.00
2023-06-01T02:29:32.637Z,36.97
2023-06-01T02:30:32.675Z,36.92
2023-06-01T02:31:32.756Z,36.96
2023-06-01T02:32:32.802Z,36.96
2023-06-01T02:33:32.863Z,36.94
2023-06-01T02:34:32.948Z,36.95
2023-06-01T02:35:32.993Z,36.92
2023-06-01T02:36:33.149Z,37.00
2023-06-01T02:37:33.114Z,36.96
2023-06-01T02:38:33.196Z,36.94
2023-06-01T02:39:33.225Z,36.95
2023-06-01T02:40:33.291Z,36.95
2023-06-01T02:41:33.360Z,36.97
2023-06-01T02:42:33.427Z,36.91
2023-06-01T02:43:33.513Z,36.95
2023-06-01T02:44:33.549Z,36.94
2023-06-01T02:45:33.854Z,36.97
2023-06-01T02:46:33.786Z,36.96
2023-06-01T02:47:33.753Z,36.96
2023-06-01T02:48:33.802Z,36.95
2023-06-01T02:49:33.853Z,36.96
2023-06-01T02:50:33.914Z,36.90
2023-06-01T02:51:33.986Z,36.97
2023-06-01T02:52:34.037Z,36.99
2023-06-01T02:53:34.106Z,36.95
2023-06-01T02:54:34.182Z,36.92
2023-06-01T02:55:34.228Z,36.94
2023-06-01T02:56:34.280Z,36.91
2023-06-01T02:57:34.349Z,36.93
2023-06-01T02:58:34.413Z,36.96
2023-06-01T02:59:34.483Z,36.91
2023-06-01T03:00:34.542Z,36.90
2023-06-01T03:01:34.685Z,36.89
2023-06-01T03:02:34.698Z,36.93
2023-06-01T03:03:34.762Z,36.92
2023-06-01T03:04:34.799Z,36.92
2023-06-01T03:05:34.862Z,36.91
2023-06-01T03:06:34.942Z,36.92
2023-06-01T03:07:34.982Z,36.91
2023-06-01T03:08:35.058Z,36.89
2023-06-01T03:09:35.110Z,36.94
2023-06-01T03:10:35.171Z,36.92
2023-06-01T03:11:35.236Z,36.91
2023-06-01T03:12:35.302Z,36.91
2023-06-01T03:13:35.364Z,36.91
2023-06-01T03:14:35.439Z,36.91
2023-06-01T03:15:35.553Z,36.91
2023-06-01T03:16:35.555Z,36.90
2023-06-01T03:17:35.656Z,36.91
2023-06-01T03:18:38.077Z,36.92
2023-06-01T03:19:35.695Z,36.92
2023-06-01T03:20:35.678Z,36.87
2023-06-01T03:21:35.696Z,36.90
2023-06-01T03:22:35.666Z,36.93
2023-06-01T03:23:35.655Z,36.93
2023-06-01T03:24:35.658Z,36.85
2023-06-01T03:25:35.636Z,36.90
2023-06-01T03:26:35.631Z,36.92
2023-06-01T03:27:35.623Z,36.96
2023-06-01T03:28:35.620Z,36.88
2023-06-01T03:29:35.616Z,36.90
2023-06-01T03:30:35.600Z,36.89
2023-06-01T03:31:36.263Z,36.90
2023-06-01T03:32:35.605Z,36.90
2023-06-01T03:33:35.585Z,36.88
2023-06-01T03:34:35.574Z,36.90
2023-06-01T03:35:35.563Z,36.87
2023-06-01T03:36:35.559Z,36.88
2023-06-01T03:37:35.605Z,36.88
2023-06-01T03:38:35.673Z,36.87
2023-06-01T03:39:35.727Z,36.88
2023-06-01T03:40:35.784Z,36.88
2023-06-01T03:41:35.850Z,36.88
2023-06-01T03:42:35.911Z,36.88
2023-06-01T03:43:35.969Z,36.87
2023-06-01T03:44:36.055Z,36.87
2023-06-01T03:45:36.109Z,36.85
2023-06-01T03:46:36.272Z,36.86
2023-06-01T03:47:36.240Z,36.81
2023-06-01T03:48:36.297Z,36.85
2023-06-01T03:49:36.353Z,36.88
2023-06-01T03:50:36.412Z,36.86
2023-06-01T03:51:36.483Z,36.83
2023-06-01T03:52:36.560Z,36.86
2023-06-01T03:53:36.611Z,36.85
2023-06-01T03:54:36.687Z,36.78
2023-06-01T03:55:36.742Z,36.83
2023-06-01T03:56:36.815Z,36.82
2023-06-01T03:57:36.875Z,36.83
2023-06-01T03:58:36.951Z,36.85
2023-06-01T03:59:36.993Z,36.82
2023-06-01T04:00:37.055Z,36.85
2023-06-01T04:01:38.232Z,36.82
2023-06-01T04:02:37.261Z,36.85
2023-06-01T04:03:37.223Z,36.82
2023-06-01T04:04:37.287Z,36.83
2023-06-01T04:05:37.069Z,36.81
2023-06-01T04:06:37.064Z,36.81
2023-06-01T04:07:37.056Z,36.83
2023-06-01T04:08:37.056Z,36.78
2023-06-01T04:09:37.054Z,36.82
2023-06-01T04:10:37.050Z,36.76
2023-06-01T04:11:37.029Z,36.78
2023-06-01T04:12:37.034Z,36.77
2023-06-01T04:13:37.022Z,36.76
2023-06-01T04:14:37.015Z,36.77
2023-06-01T04:15:37.009Z,36.80
2023-06-01T04:16:37.044Z,36.76
2023-06-01T04:17:37.022Z,36.77
2023-06-01T04:18:36.985Z,36.80
2023-06-01T04:19:37.006Z,36.80
2023-06-01T04:20:36.973Z,36.78
2023-06-01T04:21:36.975Z,36.77
2023-06-01T04:22:36.992Z,36.80
2023-06-01T04:23:37.053Z,36.77
2023-06-01T04:24:37.115Z,36.80
2023-06-01T04:25:37.173Z,36.77
2023-06-01T04:26:37.254Z,36.77
2023-06-01T04:27:37.274Z,36.74
2023-06-01T04:28:37.332Z,36.73
2023-06-01T04:29:38.279Z,36.76
2023-06-01T04:30:37.448Z,36.77
2023-06-01T04:31:37.562Z,36.77
2023-06-01T04:32:37.626Z,36.76
2023-06-01T04:33:37.632Z,36.75
2023-06-01T04:34:37.699Z,36.74
2023-06-01T04:35:37.825Z,36.74
2023-06-01T04:36:37.821Z,36.76
2023-06-01T04:37:37.913Z,36.73
2023-06-01T04:38:37.935Z,36.76
2023-06-01T04:39:38.001Z,36.73
2023-06-01T04:40:38.074Z,36.74
2023-06-01T04:41:38.111Z,36.71
2023-06-01T04:42:38.167Z,36.69
2023-06-01T04:43:38.236Z,36.73
2023-06-01T04:44:38.309Z,36.72
2023-06-01T04:45:38.381Z,36.74
2023-06-01T04:46:38.500Z,36.70
2023-06-01T04:47:38.580Z,36.67
2023-06-01T04:48:38.574Z,36.74
2023-06-01T04:49:39.987Z,36.69
2023-06-01T04:50:38.659Z,36.68
2023-06-01T04:51:38.621Z,36.71
2023-06-01T04:52:38.646Z,36.69
2023-06-01T04:53:38.616Z,36.72
2023-06-01T04:54:38.623Z,36.67
2023-06-01T04:55:38.603Z,36.74
2023-06-01T04:56:38.598Z,36.67
2023-06-01T04:57:38.586Z,36.69
2023-06-01T04:58:38.589Z,36.69
2023-06-01T04:59:38.580Z,36.66
2023-06-01T05:00:38.574Z,36.70
2023-06-01T05:01:38.601Z,36.69
2023-06-01T05:02:38.605Z,36.63
2023-06-01T05:03:38.632Z,36.67
2023-06-01T05:04:38.555Z,36.66
2023-06-01T05:05:41.250Z,36.66
2023-06-01T05:06:38.531Z,36.65
2023-06-01T05:07:38.536Z,36.69
2023-06-01T05:08:38.539Z,36.65
2023-06-01T05:09:38.525Z,36.69
2023-06-01T05:10:38.509Z,36.66
2023-06-01T05:11:38.517Z,36.63
2023-06-01T05:12:38.492Z,36.67
2023-06-01T05:13:38.494Z,36.68
2023-06-01T05:14:38.506Z,36.70
2023-06-01T05:15:38.484Z,36.68
2023-06-01T05:16:38.531Z,36.67
2023-06-01T05:17:38.463Z,36.63
2023-06-01T05:18:38.459Z,36.63
2023-06-01T05:19:38.455Z,36.65
2023-06-01T05:20:38.478Z,36.69
2023-06-01T05:21:38.504Z,36.66
2023-06-01T05:22:38.500Z,36.67
2023-06-01T05:23:38.425Z,36.69
2023-06-01T05:24:38.417Z,36.65
2023-06-01T05:25:38.426Z,36.69
2023-06-01T05:26:38.412Z,36.67
2023-06-01T05:27:38.398Z,36.67
2023-06-01T05:28:38.404Z,36.69
2023-06-01T05:29:38.416Z,36.69
2023-06-01T05:30:38.460Z,36.65
2023-06-01T05:31:38.548Z,36.66
2023-06-01T05:32:38.609Z,36.69
2023-06-01T05:33:38.628Z,36.69
2023-06-01T05:34:38.703Z,36.67
2023-06-01T05:35:38.756Z,36.66
2023-06-01T05:36:38.890Z,36.68
2023-06-01T05:37:38.862Z,36.65
2023-06-01T05:38:38.959Z,36.67
2023-06-01T05:39:38.999Z,36.66
2023-06-01T05:40:39.052Z,36.69
2023-06-01T05:41:39.122Z,36.65
2023-06-01T05:42:39.203Z,36.68
2023-06-01T05:43:42.508Z,36.68
2023-06-01T05:44:40.275Z,36.68
2023-06-01T05:45:40.245Z,36.69
2023-06-01T05:46:39.223Z,36.69
2023-06-01T05:47:39.252Z,36.66
2023-06-01T05:48:41.284Z,36.64
2023-06-01T05:49:39.209Z,36.64
2023-06-01T05:50:39.209Z,36.72
2023-06-01T05:51:40.237Z,36.68
2023-06-01T05:52:39.182Z,36.68
2023-06-01T05:53:39.656Z,36.67
2023-06-01T05:54:39.205Z,36.69
2023-06-01T05:55:39.708Z,36.74
2023-06-01T05:57:46.541Z,37.08
2023-06-01T05:58:41.217Z,37.22
2023-06-01T06:00:55.274Z,37.22
2023-06-01T06:01:39.174Z,37.27
2023-06-01T06:02:54.866Z,37.24
2023-06-01T06:04:11.193Z,37.23
2023-06-01T06:04:46.521Z,37.21
2023-06-01T06:05:39.603Z,37.19
2023-06-01T06:07:42.769Z,37.18
2023-06-01T06:09:46.805Z,37.12
2023-06-01T06:10:39.342Z,37.19
2023-06-01T06:11:39.416Z,37.17
2023-06-01T06:12:40.476Z,37.17
2023-06-01T06:13:45.738Z,37.19
2023-06-01T06:14:40.943Z,37.13
2023-06-01T06:15:39.362Z,37.12
2023-06-01T06:16:40.166Z,37.13
2023-06-01T06:17:54.695Z,37.19
2023-06-01T06:18:40.322Z,37.13
2023-06-01T06:19:42.777Z,37.14
2023-06-01T06:20:39.362Z,37.15
2023-06-01T06:21:39.560Z,37.15
2023-06-01T06:22:39.193Z,37.17
2023-06-01T06:23:55.126Z,37.15
2023-06-01T06:24:40.413Z,37.15
2023-06-01T06:25:39.156Z,37.14
2023-06-01T06:26:39.203Z,37.14
2023-06-01T06:27:39.393Z,37.12
2023-06-01T06:28:39.636Z,37.15
2023-06-01T06:29:39.472Z,37.15
2023-06-01T06:30:39.278Z,37.14
2023-06-01T06:31:46.971Z,37.10
2023-06-01T06:32:39.461Z,37.12
2023-06-01T06:33:39.497Z,37.14
2023-06-01T06:34:39.508Z,37.14
2023-06-01T06:35:39.666Z,37.14
2023-06-01T06:36:39.553Z,37.13
2023-06-01T06:37:39.526Z,37.10
2023-06-01T06:38:39.809Z,37.15
2023-06-01T06:39:39.600Z,37.14
2023-06-01T06:40:39.667Z,37.13
2023-06-01T06:41:39.386Z,37.12
2023-06-01T06:42:39.277Z,37.10
2023-06-01T06:43:46.804Z,37.14
2023-06-01T06:44:54.950Z,37.13
2023-06-01T06:45:42.408Z,37.10
2023-06-01T06:46:39.363Z,37.12
2023-06-01T06:47:54.879Z,37.12
2023-06-01T06:48:39.500Z,37.12
2023-06-01T06:50:42.706Z,37.10
2023-06-01T06:52:42.483Z,37.08
2023-06-01T06:53:47.062Z,37.14
2023-06-01T06:54:42.548Z,37.09
2023-06-01T06:55:39.366Z,37.10
2023-06-01T06:57:42.447Z,37.12
2023-06-01T06:58:39.468Z,37.13
2023-06-01T06:59:39.302Z,37.12
2023-06-01T07:00:39.048Z,37.12
2023-06-01T07:01:54.852Z,37.09
2023-06-01T07:02:39.288Z,37.10
2023-06-01T07:03:39.516Z,37.10
2023-06-01T07:04:39.184Z,37.09
2023-06-01T07:05:39.569Z,37.10
2023-06-01T07:06:39.181Z,37.09
2023-06-01T07:07:39.358Z,37.12
2023-06-01T07:09:39.179Z,37.07
2023-06-01T07:10:39.266Z,37.09
2023-06-01T07:11:39.186Z,37.05
2023-06-01T07:12:39.178Z,37.09
2023-06-01T07:13:39.637Z,37.10
2023-06-01T07:14:39.007Z,37.10
2023-06-01T07:15:39.014Z,37.04
2023-06-01T07:16:39.169Z,37.04
2023-06-01T07:17:39.205Z,37.04
2023-06-01T07:18:39.603Z,37.07
2023-06-01T07:19:42.412Z,37.06
2023-06-01T07:20:39.229Z,37.08
2023-06-01T07:21:39.132Z,37.03
2023-06-01T07:22:39.170Z,37.07
2023-06-01T07:23:39.847Z,37.05
2023-06-01T07:24:38.886Z,37.06
2023-06-01T07:25:38.863Z,37.03
2023-06-01T07:26:39.847Z,37.05
2023-06-01T07:28:38.848Z,37.06
2023-06-01T07:29:46.238Z,37.02
2023-06-01T07:30:38.862Z,37.06
2023-06-01T07:31:38.841Z,37.04
2023-06-01T07:32:39.240Z,37.02
2023-06-01T07:33:38.916Z,37.03
2023-06-01T07:34:38.803Z,37.03
2023-06-01T07:35:38.799Z,37.02
2023-06-01T07:36:39.792Z,37.24
2023-06-01T07:37:38.859Z,37.13
2023-06-01T07:38:42.147Z,37.11
2023-06-01T07:39:38.769Z,37.12
2023-06-01T07:40:38.770Z,37.35
2023-06-01T07:41:38.752Z,37.25
2023-06-01T07:42:38.866Z,37.32
2023-06-01T07:43:38.855Z,37.37
2023-06-01T07:44:38.732Z,37.42
2023-06-01T07:45:38.734Z,37.50
2023-06-01T07:46:39.934Z,37.57
2023-06-01T07:47:39.865Z,37.58
2023-06-01T07:48:38.852Z,37.69
2023-06-01T07:49:38.694Z,37.66
2023-06-01T07:50:38.698Z,37.81
2023-06-01T07:51:38.679Z,37.75
2023-06-01T07:52:38.675Z,37.90
2023-06-01T07:53:38.857Z,37.96
2023-06-01T07:54:38.688Z,38.00
2023-06-01T07:55:38.874Z,38.13
2023-06-01T07:56:38.665Z,38.22
2023-06-01T07:57:38.661Z,38.52
2023-06-01T07:58:46.252Z,38.39
2023-06-01T07:59:38.663Z,38.35
2023-06-01T08:00:38.644Z,38.25
2023-06-01T08:01:41.833Z,38.28
2023-06-01T08:03:11.019Z,38.21
2023-06-01T08:03:38.862Z,38.19
2023-06-01T08:04:38.623Z,38.20
2023-06-01T08:05:41.870Z,38.17
2023-06-01T08:06:38.858Z,38.21
2023-06-01T08:07:38.590Z,38.20
2023-06-01T08:08:38.860Z,38.13
2023-06-01T08:09:38.898Z,38.18
2023-06-01T08:10:38.580Z,38.21
2023-06-01T08:11:38.859Z,38.19
2023-06-01T08:12:38.565Z,38.20
2023-06-01T08:13:38.568Z,38.19
2023-06-01T08:14:38.557Z,38.24
2023-06-01T08:15:38.548Z,38.28
2023-06-01T08:16:46.286Z,38.25
2023-06-01T08:17:38.653Z,38.30
2023-06-01T08:18:38.532Z,38.30
2023-06-01T08:19:38.526Z,38.30
2023-06-01T08:20:38.552Z,38.40
2023-06-01T08:21:38.944Z,38.51
2023-06-01T08:22:38.502Z,38.63
2023-06-01T08:23:38.494Z,38.67
2023-06-01T08:24:38.528Z,38.73
2023-06-01T08:25:38.484Z,38.78
2023-06-01T08:26:38.874Z,38.86
2023-06-01T08:27:38.485Z,38.96
2023-06-01T08:28:38.456Z,39.10
2023-06-01T08:29:42.801Z,39.16
2023-06-01T08:30:38.451Z,39.35
2023-06-01T08:31:38.932Z,39.46
2023-06-01T08:32:38.452Z,39.54
2023-06-01T08:33:38.427Z,39.58
2023-06-01T08:34:38.436Z,39.62
2023-06-01T08:36:37.882Z,40.08
2023-06-01T08:37:38.407Z,40.16
2023-06-01T08:38:38.386Z,40.29
2023-06-01T08:39:38.383Z,40.40
2023-06-01T08:40:41.588Z,40.65
2023-06-01T08:41:38.383Z,41.00
2023-06-01T08:42:38.369Z,41.18
2023-06-01T08:43:38.404Z,41.23
2023-06-01T08:44:38.351Z,41.28
2023-06-01T08:46:10.133Z,41.40
2023-06-01T08:46:38.419Z,41.43
2023-06-01T08:47:38.377Z,41.54
2023-06-01T08:48:38.324Z,41.59
2023-06-01T08:49:38.319Z,41.75
2023-06-01T08:50:38.306Z,41.99
2023-06-01T08:51:38.377Z,41.98
2023-06-01T08:52:38.287Z,42.08
2023-06-01T08:53:38.377Z,42.20
2023-06-01T08:54:39.274Z,42.23
2023-06-01T08:55:38.269Z,42.19
2023-06-01T08:56:38.258Z,42.27
2023-06-01T08:57:41.451Z,42.53
2023-06-01T08:58:38.260Z,42.52
2023-06-01T08:59:38.232Z,42.48
2023-06-01T09:00:38.243Z,42.52
2023-06-01T09:01:38.282Z,42.58
2023-06-01T09:02:38.242Z,42.74
2023-06-01T09:03:38.271Z,42.78
2023-06-01T09:04:38.194Z,42.81
2023-06-01T09:05:38.192Z,42.83
2023-06-01T09:06:38.179Z,43.00
2023-06-01T09:07:38.177Z,42.84
2023-06-01T09:08:38.222Z,42.88
2023-06-01T09:09:38.273Z,42.91
2023-06-01T09:10:38.160Z,42.99
2023-06-01T09:11:38.151Z,43.16
2023-06-01T09:12:38.150Z,43.16
2023-06-01T09:13:38.389Z,43.31
2023-06-01T09:14:38.150Z,43.29
2023-06-01T09:15:38.122Z,43.39
2023-06-01T09:16:38.224Z,43.45
2023-06-01T09:17:38.386Z,43.35
2023-06-01T09:18:38.390Z,43.48
2023-06-01T09:19:38.107Z,43.49
2023-06-01T09:20:38.098Z,43.45
2023-06-01T09:21:38.125Z,43.48
2023-06-01T09:22:38.120Z,43.68
2023-06-01T09:23:38.392Z,43.89
2023-06-01T09:24:38.391Z,43.88
2023-06-01T09:25:38.196Z,43.97
2023-06-01T09:26:38.249Z,44.04
2023-06-01T09:27:38.266Z,44.07
2023-06-01T09:28:38.399Z,44.22
2023-06-01T09:29:41.595Z,44.35
2023-06-01T09:30:38.343Z,44.47
2023-06-01T09:31:45.743Z,44.27
2023-06-01T09:32:38.346Z,44.15
2023-06-01T09:33:38.315Z,43.96
2023-06-01T09:34:38.495Z,43.82
2023-06-01T09:35:45.738Z,43.71
2023-06-01T09:36:41.616Z,43.61
2023-06-01T09:37:42.532Z,43.59
2023-06-01T09:38:38.279Z,43.42
2023-06-01T09:39:41.478Z,43.38
2023-06-01T09:40:38.563Z,43.32
2023-06-01T09:41:38.422Z,43.25
2023-06-01T09:42:38.266Z,43.18
2023-06-01T09:43:38.405Z,43.08
2023-06-01T09:44:38.286Z,43.01
2023-06-01T09:45:38.234Z,42.96
2023-06-01T09:46:38.275Z,42.90
2023-06-01T09:47:38.261Z,42.81
2023-06-01T09:48:38.627Z,42.83
2023-06-01T09:49:46.687Z,42.72
2023-06-01T09:50:38.203Z,42.68
2023-06-01T09:51:38.189Z,42.68
2023-06-01T09:52:45.666Z,42.63
2023-06-01T09:53:38.207Z,42.54
2023-06-01T09:54:38.170Z,42.58
2023-06-01T09:55:41.379Z,42.52
2023-06-01T09:56:38.164Z,42.52
2023-06-01T09:57:38.174Z,42.44
2023-06-01T09:58:41.330Z,42.46
2023-06-01T09:59:38.407Z,42.43
2023-06-01T10:00:38.272Z,42.39
2023-06-01T10:01:38.157Z,42.33
2023-06-01T10:02:38.210Z,42.33
2023-06-01T10:03:38.270Z,42.24
2023-06-01T10:04:38.098Z,42.25
2023-06-01T10:05:38.100Z,42.23
2023-06-01T10:06:38.104Z,42.06
2023-06-01T10:07:38.141Z,42.07
2023-06-01T10:08:38.410Z,42.04
2023-06-01T10:09:38.402Z,42.02
2023-06-01T10:10:38.278Z,41.92
2023-06-01T10:11:38.345Z,41.91
2023-06-01T10:12:45.732Z,41.83
2023-06-01T10:13:38.373Z,41.83
2023-06-01T10:14:38.458Z,41.73
2023-06-01T10:15:38.351Z,41.72
2023-06-01T10:16:40.420Z,41.64
2023-06-01T10:17:39.438Z,41.57
2023-06-01T10:19:38.321Z,41.49
2023-06-01T10:20:38.370Z,41.17
2023-06-01T10:21:38.348Z,41.33
2023-06-01T10:22:38.309Z,41.37
2023-06-01T10:23:45.874Z,41.22
2023-06-01T10:24:38.293Z,41.27
2023-06-01T10:25:39.271Z,41.22
2023-06-01T10:26:38.300Z,41.24
2023-06-01T10:27:38.543Z,41.16
2023-06-01T10:28:38.441Z,41.15
2023-06-01T10:29:38.277Z,41.09
2023-06-01T10:30:38.243Z,41.10
2023-06-01T10:31:38.330Z,41.00
2023-06-01T10:32:38.368Z,40.93
2023-06-01T10:33:38.415Z,40.94
2023-06-01T10:34:38.237Z,40.89
2023-06-01T10:35:38.178Z,40.85
2023-06-01T10:36:38.418Z,40.78
2023-06-01T10:37:38.170Z,40.84
2023-06-01T10:38:38.163Z,40.49
2023-06-01T10:39:39.963Z,40.69
2023-06-01T10:40:38.156Z,40.66
2023-06-01T10:41:38.153Z,40.56
2023-06-01T10:42:38.204Z,40.56
2023-06-01T10:43:38.145Z,40.44
2023-06-01T10:44:38.422Z,40.39
2023-06-01T10:45:38.329Z,40.30
2023-06-01T10:46:40.227Z,40.39
2023-06-01T10:47:38.146Z,40.29
2023-06-01T10:48:38.090Z,40.38
2023-06-01T10:49:38.469Z,40.24
2023-06-01T10:50:38.079Z,40.21
2023-06-01T10:51:38.077Z,40.24
2023-06-01T10:52:38.064Z,40.30
2023-06-01T10:53:38.053Z,40.23
2023-06-01T10:54:38.076Z,40.12
2023-06-01T10:55:38.071Z,40.15
2023-06-01T10:56:38.043Z,40.15
2023-06-01T10:57:38.034Z,40.10
2023-06-01T10:58:38.027Z,40.03
2023-06-01T10:59:38.031Z,39.97
2023-06-01T11:00:38.056Z,40.00
2023-06-01T11:01:38.043Z,39.97
2023-06-01T11:02:38.008Z,39.94
2023-06-01T11:03:38.076Z,39.84
2023-06-01T11:04:38.576Z,39.74
2023-06-01T11:05:38.001Z,39.59
2023-06-01T11:06:38.466Z,39.65
2023-06-01T11:07:38.001Z,39.53
2023-06-01T11:08:38.453Z,39.64
2023-06-01T11:09:37.951Z,39.81
2023-06-01T11:10:37.942Z,39.80
2023-06-01T11:11:37.937Z,39.50
2023-06-01T11:12:37.926Z,39.50
2023-06-01T11:13:37.986Z,39.67
2023-06-01T11:14:37.946Z,39.60
2023-06-01T11:15:37.975Z,39.51
2023-06-01T11:16:37.997Z,39.63
2023-06-01T11:17:37.915Z,39.55
2023-06-01T11:18:37.954Z,39.52
2023-06-01T11:19:37.895Z,39.52
2023-06-01T11:20:37.921Z,39.50
2023-06-01T11:21:37.989Z,39.53
2023-06-01T11:22:38.093Z,39.55
2023-06-01T11:23:37.859Z,39.47
2023-06-01T11:24:37.863Z,39.36
2023-06-01T11:25:37.835Z,39.53
2023-06-01T11:26:37.833Z,39.41
2023-06-01T11:27:37.825Z,39.35
2023-06-01T11:28:37.963Z,39.27
2023-06-01T11:29:37.802Z,39.28
2023-06-01T11:30:37.956Z,39.35
2023-06-01T11:31:37.822Z,39.08
2023-06-01T11:32:37.824Z,39.15
2023-06-01T11:33:37.771Z,39.08
2023-06-01T11:34:37.774Z,39.02
2023-06-01T11:35:37.957Z,39.15
2023-06-01T11:36:37.757Z,39.09
2023-06-01T11:37:37.742Z,39.16
2023-06-01T11:38:39.698Z,39.04
2023-06-01T11:39:37.727Z,39.11
2023-06-01T11:40:39.969Z,39.04
2023-06-01T11:41:37.811Z,39.11
2023-06-01T11:42:37.703Z,39.14
2023-06-01T11:43:37.967Z,38.98
2023-06-01T11:44:37.715Z,38.97
2023-06-01T11:45:37.945Z,38.93
2023-06-01T11:46:37.680Z,38.88
2023-06-01T11:47:37.676Z,38.95
2023-06-01T11:48:37.660Z,38.75
2023-06-01T11:49:37.653Z,38.92
2023-06-01T11:50:37.946Z,38.74
2023-06-01T11:51:37.639Z,38.74
2023-06-01T11:52:37.643Z,38.84
2023-06-01T11:53:37.623Z,38.83
2023-06-01T11:54:37.663Z,38.76
2023-06-01T11:55:37.610Z,38.87
2023-06-01T11:56:37.605Z,39.02
2023-06-01T11:57:37.613Z,38.68
2023-06-01T11:58:37.597Z,38.68
2023-06-01T11:59:37.958Z,38.76
2023-06-01T12:00:40.782Z,38.78
2023-06-01T12:01:37.561Z,38.96
2023-06-01T12:02:37.700Z,38.61
2023-06-01T12:03:37.586Z,38.74
2023-06-01T12:04:38.018Z,38.76
2023-06-01T12:05:37.532Z,38.75
2023-06-01T12:06:37.523Z,38.71
2023-06-01T12:07:37.519Z,38.65
2023-06-01T12:08:37.511Z,38.66
2023-06-01T12:09:37.513Z,38.67
2023-06-01T12:10:37.502Z,38.62
2023-06-01T12:11:37.489Z,38.63
2023-06-01T12:12:37.485Z,38.67
2023-06-01T12:13:37.467Z,38.71
2023-06-01T12:14:37.709Z,38.70
2023-06-01T12:15:37.457Z,38.74
2023-06-01T12:16:37.465Z,38.71
2023-06-01T12:17:37.559Z,38.66
2023-06-01T12:18:37.644Z,38.53
2023-06-01T12:19:37.464Z,38.63
2023-06-01T12:20:37.423Z,38.68
2023-06-01T12:21:37.438Z,38.57
2023-06-01T12:22:37.409Z,38.45
2023-06-01T12:23:37.401Z,38.57
2023-06-01T12:24:37.464Z,38.56
2023-06-01T12:25:37.447Z,38.42
2023-06-01T12:26:37.377Z,38.40
2023-06-01T12:27:37.379Z,38.49
2023-06-01T12:28:37.365Z,38.46
2023-06-01T12:29:37.364Z,38.35
2023-06-01T12:30:37.364Z,38.33
2023-06-01T12:31:37.463Z,38.27
2023-06-01T12:32:37.393Z,38.40
2023-06-01T12:33:37.361Z,38.31
2023-06-01T12:34:37.474Z,38.27
2023-06-01T12:35:37.316Z,38.21
2023-06-01T12:36:37.316Z,38.10
2023-06-01T12:37:37.302Z,38.29
2023-06-01T12:38:37.326Z,38.17
2023-06-01T12:39:37.278Z,38.38
2023-06-01T12:40:37.480Z,38.18
2023-06-01T12:41:37.267Z,38.13
2023-06-01T12:42:37.263Z,38.33
2023-06-01T12:43:37.268Z,38.25
2023-06-01T12:44:38.717Z,38.27
2023-06-01T12:45:37.414Z,38.17
2023-06-01T12:46:37.419Z,38.34
2023-06-01T12:47:37.446Z,38.24
2023-06-01T12:48:37.434Z,38.35
2023-06-01T12:49:37.467Z,37.47
2023-06-01T12:50:38.006Z,36.03
2023-06-01T12:51:37.432Z,36.32
2023-06-01T12:52:37.428Z,36.24
2023-06-01T12:53:37.705Z,36.24
2023-06-01T12:54:37.473Z,36.50
2023-06-01T12:55:37.452Z,36.49
2023-06-01T12:56:37.449Z,36.45
2023-06-01T12:57:37.450Z,36.26
2023-06-01T12:58:37.982Z,36.32
2023-06-01T12:59:37.465Z,36.33
2023-06-01T13:00:56.345Z,36.37
2023-06-01T13:01:37.776Z,36.33
2023-06-01T13:02:37.770Z,36.40
2023-06-01T13:03:38.089Z,36.45